sensor_id;sensor_type;location;lat;lon;timestamp;temperature;humidity
51029;DHT22;37054;52.054;8.600;2024-01-30T00:02:24;7.70;57.90
51029;DHT22;37054;52.054;8.600;2024-01-30T00:04:50;7.70;58.00
51029;DHT22;37054;52.054;8.600;2024-01-30T00:07:16;7.70;57.80
51029;DHT22;37054;52.054;8.600;2024-01-30T00:09:41;7.70;57.90
51029;DHT22;37054;52.054;8.600;2024-01-30T00:12:07;7.70;58.00
51029;DHT22;37054;52.054;8.600;2024-01-30T00:14:33;7.70;58.00
51029;DHT22;37054;52.054;8.600;2024-01-30T00:16:58;7.70;58.20
51029;DHT22;37054;52.054;8.600;2024-01-30T00:19:24;7.70;58.20
51029;DHT22;37054;52.054;8.600;2024-01-30T00:21:49;7.70;58.30
51029;DHT22;37054;52.054;8.600;2024-01-30T00:24:15;7.70;58.30
51029;DHT22;37054;52.054;8.600;2024-01-30T00:26:40;7.70;58.20
51029;DHT22;37054;52.054;8.600;2024-01-30T00:29:06;7.70;58.20
51029;DHT22;37054;52.054;8.600;2024-01-30T00:31:31;7.70;58.10
51029;DHT22;37054;52.054;8.600;2024-01-30T00:33:57;7.70;58.10
51029;DHT22;37054;52.054;8.600;2024-01-30T00:36:22;7.70;58.10
51029;DHT22;37054;52.054;8.600;2024-01-30T00:38:48;7.70;58.10
51029;DHT22;37054;52.054;8.600;2024-01-30T00:41:14;7.70;58.10
51029;DHT22;37054;52.054;8.600;2024-01-30T00:43:39;7.70;58.20
51029;DHT22;37054;52.054;8.600;2024-01-30T00:46:05;7.70;58.20
51029;DHT22;37054;52.054;8.600;2024-01-30T00:48:30;7.70;58.40
51029;DHT22;37054;52.054;8.600;2024-01-30T00:50:56;7.70;58.50
51029;DHT22;37054;52.054;8.600;2024-01-30T00:53:21;7.70;58.70
51029;DHT22;37054;52.054;8.600;2024-01-30T00:55:47;7.80;58.80
51029;DHT22;37054;52.054;8.600;2024-01-30T00:58:12;7.80;58.80
51029;DHT22;37054;52.054;8.600;2024-01-30T01:00:38;7.80;59.00
51029;DHT22;37054;52.054;8.600;2024-01-30T01:03:04;7.80;59.00
51029;DHT22;37054;52.054;8.600;2024-01-30T01:05:30;7.80;59.10
51029;DHT22;37054;52.054;8.600;2024-01-30T01:07:55;7.80;59.10
51029;DHT22;37054;52.054;8.600;2024-01-30T01:10:21;7.90;59.10
51029;DHT22;37054;52.054;8.600;2024-01-30T01:12:48;7.90;59.00
51029;DHT22;37054;52.054;8.600;2024-01-30T01:15:13;7.90;59.10
51029;DHT22;37054;52.054;8.600;2024-01-30T01:17:39;7.90;59.00
51029;DHT22;37054;52.054;8.600;2024-01-30T01:20:06;7.90;59.00
51029;DHT22;37054;52.054;8.600;2024-01-30T01:22:32;7.90;58.90
51029;DHT22;37054;52.054;8.600;2024-01-30T01:24:58;7.80;58.80
51029;DHT22;37054;52.054;8.600;2024-01-30T01:27:24;7.80;58.70
51029;DHT22;37054;52.054;8.600;2024-01-30T01:29:50;7.70;58.70
51029;DHT22;37054;52.054;8.600;2024-01-30T01:32:15;7.70;58.70
51029;DHT22;37054;52.054;8.600;2024-01-30T01:34:41;7.70;58.70
51029;DHT22;37054;52.054;8.600;2024-01-30T01:37:07;7.60;58.80
51029;DHT22;37054;52.054;8.600;2024-01-30T01:39:32;7.60;58.80
51029;DHT22;37054;52.054;8.600;2024-01-30T01:41:58;7.50;59.00
51029;DHT22;37054;52.054;8.600;2024-01-30T01:44:23;7.50;59.20
51029;DHT22;37054;52.054;8.600;2024-01-30T01:46:49;7.50;59.20
51029;DHT22;37054;52.054;8.600;2024-01-30T01:49:14;7.50;59.40
51029;DHT22;37054;52.054;8.600;2024-01-30T01:51:41;7.50;59.60
51029;DHT22;37054;52.054;8.600;2024-01-30T01:54:08;7.50;59.80
51029;DHT22;37054;52.054;8.600;2024-01-30T01:56:34;7.50;59.80
51029;DHT22;37054;52.054;8.600;2024-01-30T01:59:03;7.50;59.70
51029;DHT22;37054;52.054;8.600;2024-01-30T02:01:31;7.50;60.00
51029;DHT22;37054;52.054;8.600;2024-01-30T02:03:58;7.50;59.80
51029;DHT22;37054;52.054;8.600;2024-01-30T02:06:24;7.50;59.80
51029;DHT22;37054;52.054;8.600;2024-01-30T02:08:49;7.50;59.80
51029;DHT22;37054;52.054;8.600;2024-01-30T02:11:15;7.50;59.70
51029;DHT22;37054;52.054;8.600;2024-01-30T02:13:42;7.50;59.50
51029;DHT22;37054;52.054;8.600;2024-01-30T02:16:08;7.40;59.40
51029;DHT22;37054;52.054;8.600;2024-01-30T02:18:33;7.40;59.20
51029;DHT22;37054;52.054;8.600;2024-01-30T02:23:27;7.30;59.00
51029;DHT22;37054;52.054;8.600;2024-01-30T02:25:53;7.20;59.00
51029;DHT22;37054;52.054;8.600;2024-01-30T02:28:19;7.20;58.90
51029;DHT22;37054;52.054;8.600;2024-01-30T02:30:46;7.10;58.90
51029;DHT22;37054;52.054;8.600;2024-01-30T02:33:12;7.10;58.90
51029;DHT22;37054;52.054;8.600;2024-01-30T02:35:37;7.00;58.90
51029;DHT22;37054;52.054;8.600;2024-01-30T02:38:03;6.90;59.00
51029;DHT22;37054;52.054;8.600;2024-01-30T02:40:29;6.90;59.10
51029;DHT22;37054;52.054;8.600;2024-01-30T02:42:54;6.90;59.00
51029;DHT22;37054;52.054;8.600;2024-01-30T02:45:19;6.80;59.20
51029;DHT22;37054;52.054;8.600;2024-01-30T02:47:45;6.80;59.40
51029;DHT22;37054;52.054;8.600;2024-01-30T02:50:11;6.80;59.50
51029;DHT22;37054;52.054;8.600;2024-01-30T02:52:36;6.80;59.70
51029;DHT22;37054;52.054;8.600;2024-01-30T02:55:02;6.80;59.80
51029;DHT22;37054;52.054;8.600;2024-01-30T02:57:28;6.80;59.80
51029;DHT22;37054;52.054;8.600;2024-01-30T02:59:54;6.80;59.80
51029;DHT22;37054;52.054;8.600;2024-01-30T03:02:20;6.80;59.80
51029;DHT22;37054;52.054;8.600;2024-01-30T03:04:45;6.80;59.90
51029;DHT22;37054;52.054;8.600;2024-01-30T03:07:11;6.80;59.90
51029;DHT22;37054;52.054;8.600;2024-01-30T03:09:37;6.80;60.40
51029;DHT22;37054;52.054;8.600;2024-01-30T03:12:03;6.90;60.60
51029;DHT22;37054;52.054;8.600;2024-01-30T03:14:30;6.90;61.10
51029;DHT22;37054;52.054;8.600;2024-01-30T03:16:57;7.00;61.50
51029;DHT22;37054;52.054;8.600;2024-01-30T03:19:23;7.10;62.10
51029;DHT22;37054;52.054;8.600;2024-01-30T03:21:49;7.20;62.40
51029;DHT22;37054;52.054;8.600;2024-01-30T03:24:14;7.40;62.50
51029;DHT22;37054;52.054;8.600;2024-01-30T03:26:40;7.50;62.70
51029;DHT22;37054;52.054;8.600;2024-01-30T03:29:05;7.60;62.60
51029;DHT22;37054;52.054;8.600;2024-01-30T03:31:31;7.70;62.40
51029;DHT22;37054;52.054;8.600;2024-01-30T03:33:56;7.70;61.70
51029;DHT22;37054;52.054;8.600;2024-01-30T03:36:21;7.70;60.90
51029;DHT22;37054;52.054;8.600;2024-01-30T03:38:47;7.60;60.50
51029;DHT22;37054;52.054;8.600;2024-01-30T03:41:12;7.50;60.30
51029;DHT22;37054;52.054;8.600;2024-01-30T03:43:38;7.40;60.20
51029;DHT22;37054;52.054;8.600;2024-01-30T03:46:04;7.30;60.20
51029;DHT22;37054;52.054;8.600;2024-01-30T03:48:29;7.20;60.30
51029;DHT22;37054;52.054;8.600;2024-01-30T03:50:55;7.20;60.50
51029;DHT22;37054;52.054;8.600;2024-01-30T03:53:21;7.20;60.70
51029;DHT22;37054;52.054;8.600;2024-01-30T03:55:46;7.10;61.00
51029;DHT22;37054;52.054;8.600;2024-01-30T03:58:12;7.20;61.20
51029;DHT22;37054;52.054;8.600;2024-01-30T04:00:38;7.20;61.30
51029;DHT22;37054;52.054;8.600;2024-01-30T04:03:03;7.20;61.20
51029;DHT22;37054;52.054;8.600;2024-01-30T04:05:29;7.20;61.00
51029;DHT22;37054;52.054;8.600;2024-01-30T04:07:54;7.20;60.80
51029;DHT22;37054;52.054;8.600;2024-01-30T04:10:20;7.20;60.70
51029;DHT22;37054;52.054;8.600;2024-01-30T04:12:45;7.20;60.60
51029;DHT22;37054;52.054;8.600;2024-01-30T04:15:11;7.10;60.50
51029;DHT22;37054;52.054;8.600;2024-01-30T04:17:37;7.10;60.50
51029;DHT22;37054;52.054;8.600;2024-01-30T04:20:02;7.00;60.40
51029;DHT22;37054;52.054;8.600;2024-01-30T04:22:28;7.00;60.40
51029;DHT22;37054;52.054;8.600;2024-01-30T04:24:54;6.90;60.40
51029;DHT22;37054;52.054;8.600;2024-01-30T04:27:19;6.90;60.40
51029;DHT22;37054;52.054;8.600;2024-01-30T04:29:45;6.90;60.50
51029;DHT22;37054;52.054;8.600;2024-01-30T04:32:10;6.90;60.60
51029;DHT22;37054;52.054;8.600;2024-01-30T04:34:38;6.90;60.70
51029;DHT22;37054;52.054;8.600;2024-01-30T04:37:04;6.90;60.70
51029;DHT22;37054;52.054;8.600;2024-01-30T04:39:29;6.90;61.00
51029;DHT22;37054;52.054;8.600;2024-01-30T04:41:55;6.90;61.10
51029;DHT22;37054;52.054;8.600;2024-01-30T04:44:20;6.90;61.10
51029;DHT22;37054;52.054;8.600;2024-01-30T04:46:46;6.90;61.00
51029;DHT22;37054;52.054;8.600;2024-01-30T04:49:11;6.90;61.10
51029;DHT22;37054;52.054;8.600;2024-01-30T04:51:37;7.00;61.10
51029;DHT22;37054;52.054;8.600;2024-01-30T04:54:03;6.90;61.00
51029;DHT22;37054;52.054;8.600;2024-01-30T04:56:28;6.90;60.90
51029;DHT22;37054;52.054;8.600;2024-01-30T04:58:54;6.90;60.80
51029;DHT22;37054;52.054;8.600;2024-01-30T05:01:19;6.90;60.80
51029;DHT22;37054;52.054;8.600;2024-01-30T05:03:45;6.90;60.80
51029;DHT22;37054;52.054;8.600;2024-01-30T05:06:10;6.90;60.80
51029;DHT22;37054;52.054;8.600;2024-01-30T05:08:36;6.90;60.80
51029;DHT22;37054;52.054;8.600;2024-01-30T05:11:05;6.80;60.80
51029;DHT22;37054;52.054;8.600;2024-01-30T05:13:31;6.80;60.90
51029;DHT22;37054;52.054;8.600;2024-01-30T05:15:57;6.80;60.90
51029;DHT22;37054;52.054;8.600;2024-01-30T05:18:22;6.80;60.90
51029;DHT22;37054;52.054;8.600;2024-01-30T05:20:49;6.80;60.90
51029;DHT22;37054;52.054;8.600;2024-01-30T05:23:15;6.80;61.00
51029;DHT22;37054;52.054;8.600;2024-01-30T05:25:40;6.80;61.00
51029;DHT22;37054;52.054;8.600;2024-01-30T05:28:06;6.70;61.00
51029;DHT22;37054;52.054;8.600;2024-01-30T05:30:31;6.80;60.90
51029;DHT22;37054;52.054;8.600;2024-01-30T05:32:57;6.80;60.90
51029;DHT22;37054;52.054;8.600;2024-01-30T05:35:22;6.70;61.10
51029;DHT22;37054;52.054;8.600;2024-01-30T05:37:48;6.70;61.20
51029;DHT22;37054;52.054;8.600;2024-01-30T05:40:15;6.70;61.40
51029;DHT22;37054;52.054;8.600;2024-01-30T05:42:41;6.80;61.60
51029;DHT22;37054;52.054;8.600;2024-01-30T05:45:06;6.80;62.00
51029;DHT22;37054;52.054;8.600;2024-01-30T05:47:33;6.90;62.20
51029;DHT22;37054;52.054;8.600;2024-01-30T05:49:58;7.00;62.30
51029;DHT22;37054;52.054;8.600;2024-01-30T05:52:24;7.00;62.20
51029;DHT22;37054;52.054;8.600;2024-01-30T05:54:49;7.00;62.00
51029;DHT22;37054;52.054;8.600;2024-01-30T05:57:15;7.10;61.90
51029;DHT22;37054;52.054;8.600;2024-01-30T05:59:40;7.10;61.90
51029;DHT22;37054;52.054;8.600;2024-01-30T06:02:06;7.00;61.70
51029;DHT22;37054;52.054;8.600;2024-01-30T06:04:31;7.00;61.50
51029;DHT22;37054;52.054;8.600;2024-01-30T06:06:57;7.00;61.40
51029;DHT22;37054;52.054;8.600;2024-01-30T06:09:22;6.90;61.30
51029;DHT22;37054;52.054;8.600;2024-01-30T06:11:48;6.90;61.40
51029;DHT22;37054;52.054;8.600;2024-01-30T06:14:13;6.80;61.50
51029;DHT22;37054;52.054;8.600;2024-01-30T06:16:39;6.80;61.80
51029;DHT22;37054;52.054;8.600;2024-01-30T06:19:04;6.80;62.10
51029;DHT22;37054;52.054;8.600;2024-01-30T06:21:31;6.90;62.30
51029;DHT22;37054;52.054;8.600;2024-01-30T06:23:57;6.90;62.30
51029;DHT22;37054;52.054;8.600;2024-01-30T06:26:23;6.90;62.30
51029;DHT22;37054;52.054;8.600;2024-01-30T06:28:48;7.00;62.10
51029;DHT22;37054;52.054;8.600;2024-01-30T06:31:14;7.00;62.00
51029;DHT22;37054;52.054;8.600;2024-01-30T06:33:39;7.00;61.80
51029;DHT22;37054;52.054;8.600;2024-01-30T06:36:07;7.00;61.70
51029;DHT22;37054;52.054;8.600;2024-01-30T06:38:33;6.90;61.50
51029;DHT22;37054;52.054;8.600;2024-01-30T06:40:58;6.80;61.50
51029;DHT22;37054;52.054;8.600;2024-01-30T06:43:24;6.80;61.60
51029;DHT22;37054;52.054;8.600;2024-01-30T06:45:49;6.80;61.70
51029;DHT22;37054;52.054;8.600;2024-01-30T06:48:15;6.80;61.80
51029;DHT22;37054;52.054;8.600;2024-01-30T06:50:41;6.80;61.70
51029;DHT22;37054;52.054;8.600;2024-01-30T06:53:06;6.80;61.80
51029;DHT22;37054;52.054;8.600;2024-01-30T06:55:32;6.80;61.80
51029;DHT22;37054;52.054;8.600;2024-01-30T06:57:57;6.80;61.90
51029;DHT22;37054;52.054;8.600;2024-01-30T07:00:23;6.90;62.00
51029;DHT22;37054;52.054;8.600;2024-01-30T07:02:48;6.90;62.10
51029;DHT22;37054;52.054;8.600;2024-01-30T07:05:14;6.90;62.10
51029;DHT22;37054;52.054;8.600;2024-01-30T07:07:40;7.00;62.20
51029;DHT22;37054;52.054;8.600;2024-01-30T07:10:06;7.00;62.30
51029;DHT22;37054;52.054;8.600;2024-01-30T07:12:32;7.10;62.30
51029;DHT22;37054;52.054;8.600;2024-01-30T07:14:58;7.20;62.40
51029;DHT22;37054;52.054;8.600;2024-01-30T07:17:24;7.20;62.50
51029;DHT22;37054;52.054;8.600;2024-01-30T07:19:50;7.20;62.70
51029;DHT22;37054;52.054;8.600;2024-01-30T07:22:16;7.20;62.60
51029;DHT22;37054;52.054;8.600;2024-01-30T07:24:44;7.30;62.60
51029;DHT22;37054;52.054;8.600;2024-01-30T07:27:10;7.40;62.60
51029;DHT22;37054;52.054;8.600;2024-01-30T07:29:36;7.40;62.70
51029;DHT22;37054;52.054;8.600;2024-01-30T07:32:01;7.50;62.70
51029;DHT22;37054;52.054;8.600;2024-01-30T07:34:27;7.60;62.70
51029;DHT22;37054;52.054;8.600;2024-01-30T07:36:53;7.70;62.70
51029;DHT22;37054;52.054;8.600;2024-01-30T07:39:18;7.70;62.70
51029;DHT22;37054;52.054;8.600;2024-01-30T07:41:44;7.80;62.70
51029;DHT22;37054;52.054;8.600;2024-01-30T07:44:09;7.80;62.80
51029;DHT22;37054;52.054;8.600;2024-01-30T07:46:35;7.80;62.90
51029;DHT22;37054;52.054;8.600;2024-01-30T07:49:00;8.00;63.00
51029;DHT22;37054;52.054;8.600;2024-01-30T07:51:27;8.00;63.20
51029;DHT22;37054;52.054;8.600;2024-01-30T07:53:54;8.10;63.30
51029;DHT22;37054;52.054;8.600;2024-01-30T07:56:20;8.20;63.50
51029;DHT22;37054;52.054;8.600;2024-01-30T07:58:45;8.30;63.60
51029;DHT22;37054;52.054;8.600;2024-01-30T08:01:11;8.50;63.80
51029;DHT22;37054;52.054;8.600;2024-01-30T08:03:36;8.60;63.80
51029;DHT22;37054;52.054;8.600;2024-01-30T08:06:05;8.70;63.80
51029;DHT22;37054;52.054;8.600;2024-01-30T08:08:32;8.80;63.70
51029;DHT22;37054;52.054;8.600;2024-01-30T08:10:57;8.90;63.70
51029;DHT22;37054;52.054;8.600;2024-01-30T08:13:23;9.00;63.60
51029;DHT22;37054;52.054;8.600;2024-01-30T08:15:48;9.10;63.50
51029;DHT22;37054;52.054;8.600;2024-01-30T08:18:14;9.20;63.50
51029;DHT22;37054;52.054;8.600;2024-01-30T08:20:39;9.30;63.50
51029;DHT22;37054;52.054;8.600;2024-01-30T08:23:05;9.40;63.50
51029;DHT22;37054;52.054;8.600;2024-01-30T08:25:30;9.50;63.40
51029;DHT22;37054;52.054;8.600;2024-01-30T08:27:56;9.60;63.30
51029;DHT22;37054;52.054;8.600;2024-01-30T08:30:22;9.70;63.30
51029;DHT22;37054;52.054;8.600;2024-01-30T08:32:48;9.80;63.30
51029;DHT22;37054;52.054;8.600;2024-01-30T08:35:13;9.90;63.30
51029;DHT22;37054;52.054;8.600;2024-01-30T08:37:41;10.10;63.40
51029;DHT22;37054;52.054;8.600;2024-01-30T08:40:07;10.20;63.50
51029;DHT22;37054;52.054;8.600;2024-01-30T08:42:33;10.40;63.50
51029;DHT22;37054;52.054;8.600;2024-01-30T08:44:59;10.50;63.40
51029;DHT22;37054;52.054;8.600;2024-01-30T08:47:25;10.70;63.40
51029;DHT22;37054;52.054;8.600;2024-01-30T08:49:51;10.80;63.30
51029;DHT22;37054;52.054;8.600;2024-01-30T08:52:16;10.90;63.30
51029;DHT22;37054;52.054;8.600;2024-01-30T08:54:42;11.10;63.20
51029;DHT22;37054;52.054;8.600;2024-01-30T08:57:08;11.20;62.80
51029;DHT22;37054;52.054;8.600;2024-01-30T08:59:33;11.30;62.80
51029;DHT22;37054;52.054;8.600;2024-01-30T09:01:59;11.30;62.70
51029;DHT22;37054;52.054;8.600;2024-01-30T09:04:25;11.50;62.90
51029;DHT22;37054;52.054;8.600;2024-01-30T09:06:50;11.70;62.90
51029;DHT22;37054;52.054;8.600;2024-01-30T09:09:16;11.80;62.80
51029;DHT22;37054;52.054;8.600;2024-01-30T09:11:43;12.00;62.80
51029;DHT22;37054;52.054;8.600;2024-01-30T09:14:08;12.10;62.80
51029;DHT22;37054;52.054;8.600;2024-01-30T09:16:34;12.30;62.70
51029;DHT22;37054;52.054;8.600;2024-01-30T09:19:00;12.40;62.60
51029;DHT22;37054;52.054;8.600;2024-01-30T09:21:25;12.60;62.50
51029;DHT22;37054;52.054;8.600;2024-01-30T09:23:54;12.80;62.70
51029;DHT22;37054;52.054;8.600;2024-01-30T09:26:19;13.00;62.90
51029;DHT22;37054;52.054;8.600;2024-01-30T09:28:45;13.30;63.10
51029;DHT22;37054;52.054;8.600;2024-01-30T09:31:11;13.60;63.40
51029;DHT22;37054;52.054;8.600;2024-01-30T09:33:37;13.90;63.30
51029;DHT22;37054;52.054;8.600;2024-01-30T09:36:03;14.20;62.70
51029;DHT22;37054;52.054;8.600;2024-01-30T09:38:29;14.40;62.20
51029;DHT22;37054;52.054;8.600;2024-01-30T09:40:55;14.60;61.80
51029;DHT22;37054;52.054;8.600;2024-01-30T09:43:23;14.80;61.80
51029;DHT22;37054;52.054;8.600;2024-01-30T09:45:53;15.10;61.70
51029;DHT22;37054;52.054;8.600;2024-01-30T09:48:19;15.30;61.00
51029;DHT22;37054;52.054;8.600;2024-01-30T09:50:45;15.40;60.70
51029;DHT22;37054;52.054;8.600;2024-01-30T09:53:11;15.70;60.20
51029;DHT22;37054;52.054;8.600;2024-01-30T09:55:39;15.80;59.70
51029;DHT22;37054;52.054;8.600;2024-01-30T09:58:08;15.90;59.00
51029;DHT22;37054;52.054;8.600;2024-01-30T10:00:33;16.10;58.70
51029;DHT22;37054;52.054;8.600;2024-01-30T10:02:58;16.20;57.80
51029;DHT22;37054;52.054;8.600;2024-01-30T10:05:27;16.20;57.30
51029;DHT22;37054;52.054;8.600;2024-01-30T10:07:54;16.30;56.10
51029;DHT22;37054;52.054;8.600;2024-01-30T10:10:25;16.40;55.40
51029;DHT22;37054;52.054;8.600;2024-01-30T10:12:50;16.40;55.20
51029;DHT22;37054;52.054;8.600;2024-01-30T10:15:17;16.40;54.50
51029;DHT22;37054;52.054;8.600;2024-01-30T10:17:44;16.50;54.20
51029;DHT22;37054;52.054;8.600;2024-01-30T10:20:10;16.50;54.30
51029;DHT22;37054;52.054;8.600;2024-01-30T10:22:36;16.50;53.70
51029;DHT22;37054;52.054;8.600;2024-01-30T10:25:02;16.60;53.30
51029;DHT22;37054;52.054;8.600;2024-01-30T10:27:28;16.70;53.40
51029;DHT22;37054;52.054;8.600;2024-01-30T10:29:55;16.80;53.80
51029;DHT22;37054;52.054;8.600;2024-01-30T10:32:20;17.00;53.40
51029;DHT22;37054;52.054;8.600;2024-01-30T10:34:46;17.20;53.00
51029;DHT22;37054;52.054;8.600;2024-01-30T10:37:12;17.40;52.60
51029;DHT22;37054;52.054;8.600;2024-01-30T10:39:43;17.60;51.90
51029;DHT22;37054;52.054;8.600;2024-01-30T10:42:13;17.70;50.90
51029;DHT22;37054;52.054;8.600;2024-01-30T10:47:34;18.00;50.10
51029;DHT22;37054;52.054;8.600;2024-01-30T10:50:02;18.10;50.10
51029;DHT22;37054;52.054;8.600;2024-01-30T10:52:29;18.30;49.90
51029;DHT22;37054;52.054;8.600;2024-01-30T10:54:56;18.50;49.30
51029;DHT22;37054;52.054;8.600;2024-01-30T10:57:23;18.70;49.20
51029;DHT22;37054;52.054;8.600;2024-01-30T10:59:50;18.90;48.60
51029;DHT22;37054;52.054;8.600;2024-01-30T11:02:17;19.10;47.90
51029;DHT22;37054;52.054;8.600;2024-01-30T11:04:42;19.30;47.80
51029;DHT22;37054;52.054;8.600;2024-01-30T11:07:18;19.50;47.40
51029;DHT22;37054;52.054;8.600;2024-01-30T11:09:51;19.70;46.20
51029;DHT22;37054;52.054;8.600;2024-01-30T11:12:18;19.90;45.70
51029;DHT22;37054;52.054;8.600;2024-01-30T11:14:46;19.90;45.40
51029;DHT22;37054;52.054;8.600;2024-01-30T11:17:12;20.10;44.90
51029;DHT22;37054;52.054;8.600;2024-01-30T11:19:38;20.10;44.70
51029;DHT22;37054;52.054;8.600;2024-01-30T11:22:03;20.20;45.20
51029;DHT22;37054;52.054;8.600;2024-01-30T11:24:40;20.40;44.10
51029;DHT22;37054;52.054;8.600;2024-01-30T11:27:09;20.40;43.90
51029;DHT22;37054;52.054;8.600;2024-01-30T11:29:35;20.30;43.90
51029;DHT22;37054;52.054;8.600;2024-01-30T11:32:01;20.30;43.60
51029;DHT22;37054;52.054;8.600;2024-01-30T11:34:27;20.20;43.60
51029;DHT22;37054;52.054;8.600;2024-01-30T11:36:58;20.10;43.70
51029;DHT22;37054;52.054;8.600;2024-01-30T11:39:29;20.00;44.00
51029;DHT22;37054;52.054;8.600;2024-01-30T11:41:55;20.00;44.00
51029;DHT22;37054;52.054;8.600;2024-01-30T11:44:21;20.00;43.80
51029;DHT22;37054;52.054;8.600;2024-01-30T11:46:48;19.90;44.00
51029;DHT22;37054;52.054;8.600;2024-01-30T11:49:14;19.90;43.90
51029;DHT22;37054;52.054;8.600;2024-01-30T11:51:40;19.90;43.90
51029;DHT22;37054;52.054;8.600;2024-01-30T11:54:05;20.00;44.40
51029;DHT22;37054;52.054;8.600;2024-01-30T11:56:31;20.10;44.20
51029;DHT22;37054;52.054;8.600;2024-01-30T11:58:56;20.10;43.80
51029;DHT22;37054;52.054;8.600;2024-01-30T12:01:22;20.00;43.00
51029;DHT22;37054;52.054;8.600;2024-01-30T12:03:50;19.90;43.90
51029;DHT22;37054;52.054;8.600;2024-01-30T12:06:16;20.00;44.10
51029;DHT22;37054;52.054;8.600;2024-01-30T12:08:42;20.00;44.00
51029;DHT22;37054;52.054;8.600;2024-01-30T12:11:07;20.00;44.10
51029;DHT22;37054;52.054;8.600;2024-01-30T12:13:34;20.00;44.30
51029;DHT22;37054;52.054;8.600;2024-01-30T12:16:00;20.00;44.40
51029;DHT22;37054;52.054;8.600;2024-01-30T12:18:26;20.00;43.60
51029;DHT22;37054;52.054;8.600;2024-01-30T12:20:58;19.90;43.70
51029;DHT22;37054;52.054;8.600;2024-01-30T12:23:26;19.80;44.00
51029;DHT22;37054;52.054;8.600;2024-01-30T12:25:52;19.70;44.40
51029;DHT22;37054;52.054;8.600;2024-01-30T12:28:18;19.80;44.40
51029;DHT22;37054;52.054;8.600;2024-01-30T12:30:43;19.60;44.60
51029;DHT22;37054;52.054;8.600;2024-01-30T12:33:09;19.60;44.40
51029;DHT22;37054;52.054;8.600;2024-01-30T12:35:35;19.50;44.50
51029;DHT22;37054;52.054;8.600;2024-01-30T12:38:02;19.40;44.70
51029;DHT22;37054;52.054;8.600;2024-01-30T12:40:28;19.30;45.00
51029;DHT22;37054;52.054;8.600;2024-01-30T12:42:54;19.30;45.10
51029;DHT22;37054;52.054;8.600;2024-01-30T12:45:19;19.30;45.40
51029;DHT22;37054;52.054;8.600;2024-01-30T12:47:47;19.30;45.50
51029;DHT22;37054;52.054;8.600;2024-01-30T12:50:12;19.20;45.60
51029;DHT22;37054;52.054;8.600;2024-01-30T12:52:42;19.20;45.80
51029;DHT22;37054;52.054;8.600;2024-01-30T12:55:08;19.30;45.80
51029;DHT22;37054;52.054;8.600;2024-01-30T12:57:33;19.20;45.40
51029;DHT22;37054;52.054;8.600;2024-01-30T12:59:59;19.10;45.60
51029;DHT22;37054;52.054;8.600;2024-01-30T13:02:24;19.10;45.70
51029;DHT22;37054;52.054;8.600;2024-01-30T13:04:51;19.10;45.80
51029;DHT22;37054;52.054;8.600;2024-01-30T13:07:17;19.00;46.00
51029;DHT22;37054;52.054;8.600;2024-01-30T13:09:43;19.00;46.20
51029;DHT22;37054;52.054;8.600;2024-01-30T13:12:09;19.10;46.20
51029;DHT22;37054;52.054;8.600;2024-01-30T13:14:34;19.10;46.20
51029;DHT22;37054;52.054;8.600;2024-01-30T13:17:00;19.10;46.40
51029;DHT22;37054;52.054;8.600;2024-01-30T13:19:25;19.10;46.60
51029;DHT22;37054;52.054;8.600;2024-01-30T13:21:52;19.20;46.70
51029;DHT22;37054;52.054;8.600;2024-01-30T13:24:17;19.30;46.50
51029;DHT22;37054;52.054;8.600;2024-01-30T13:26:46;19.30;46.40
51029;DHT22;37054;52.054;8.600;2024-01-30T13:29:12;19.40;46.60
51029;DHT22;37054;52.054;8.600;2024-01-30T13:31:37;19.40;46.60
51029;DHT22;37054;52.054;8.600;2024-01-30T13:34:05;19.50;46.40
51029;DHT22;37054;52.054;8.600;2024-01-30T13:36:32;19.50;46.40
51029;DHT22;37054;52.054;8.600;2024-01-30T13:38:57;19.50;46.20
51029;DHT22;37054;52.054;8.600;2024-01-30T13:41:23;19.40;46.30
51029;DHT22;37054;52.054;8.600;2024-01-30T13:43:49;19.40;46.10
51029;DHT22;37054;52.054;8.600;2024-01-30T13:46:14;19.30;46.20
51029;DHT22;37054;52.054;8.600;2024-01-30T13:48:40;19.30;46.30
51029;DHT22;37054;52.054;8.600;2024-01-30T13:51:06;19.20;46.30
51029;DHT22;37054;52.054;8.600;2024-01-30T13:53:31;19.20;46.70
51029;DHT22;37054;52.054;8.600;2024-01-30T13:55:57;19.20;46.70
51029;DHT22;37054;52.054;8.600;2024-01-30T13:58:22;19.20;46.80
51029;DHT22;37054;52.054;8.600;2024-01-30T14:00:48;19.10;47.00
51029;DHT22;37054;52.054;8.600;2024-01-30T14:03:14;19.10;47.10
51029;DHT22;37054;52.054;8.600;2024-01-30T14:05:40;19.10;47.20
51029;DHT22;37054;52.054;8.600;2024-01-30T14:08:06;19.00;47.40
51029;DHT22;37054;52.054;8.600;2024-01-30T14:10:32;19.00;47.50
51029;DHT22;37054;52.054;8.600;2024-01-30T14:12:58;19.00;47.50
51029;DHT22;37054;52.054;8.600;2024-01-30T14:15:23;18.90;47.60
51029;DHT22;37054;52.054;8.600;2024-01-30T14:17:49;18.90;47.80
51029;DHT22;37054;52.054;8.600;2024-01-30T14:20:15;18.80;48.00
51029;DHT22;37054;52.054;8.600;2024-01-30T14:22:43;18.70;48.30
51029;DHT22;37054;52.054;8.600;2024-01-30T14:25:09;18.70;48.50
51029;DHT22;37054;52.054;8.600;2024-01-30T14:27:35;18.60;48.70
51029;DHT22;37054;52.054;8.600;2024-01-30T14:30:01;18.50;48.90
51029;DHT22;37054;52.054;8.600;2024-01-30T14:32:28;18.50;49.10
51029;DHT22;37054;52.054;8.600;2024-01-30T14:34:53;18.40;49.30
51029;DHT22;37054;52.054;8.600;2024-01-30T14:37:20;18.40;49.40
51029;DHT22;37054;52.054;8.600;2024-01-30T14:39:46;18.40;49.60
51029;DHT22;37054;52.054;8.600;2024-01-30T14:42:13;18.30;49.80
51029;DHT22;37054;52.054;8.600;2024-01-30T14:44:38;18.30;49.90
51029;DHT22;37054;52.054;8.600;2024-01-30T14:47:05;18.20;50.00
51029;DHT22;37054;52.054;8.600;2024-01-30T14:49:31;18.20;50.10
51029;DHT22;37054;52.054;8.600;2024-01-30T14:51:56;18.20;50.30
51029;DHT22;37054;52.054;8.600;2024-01-30T14:54:23;18.20;50.30
51029;DHT22;37054;52.054;8.600;2024-01-30T14:56:49;18.20;50.40
51029;DHT22;37054;52.054;8.600;2024-01-30T14:59:14;18.20;50.40
51029;DHT22;37054;52.054;8.600;2024-01-30T15:01:40;18.10;50.40
51029;DHT22;37054;52.054;8.600;2024-01-30T15:04:05;18.10;50.50
51029;DHT22;37054;52.054;8.600;2024-01-30T15:06:31;18.00;50.50
51029;DHT22;37054;52.054;8.600;2024-01-30T15:08:56;18.00;50.60
51029;DHT22;37054;52.054;8.600;2024-01-30T15:11:22;18.00;50.60
51029;DHT22;37054;52.054;8.600;2024-01-30T15:13:47;18.00;50.70
51029;DHT22;37054;52.054;8.600;2024-01-30T15:16:13;18.00;50.60
51029;DHT22;37054;52.054;8.600;2024-01-30T15:18:39;17.90;50.60
51029;DHT22;37054;52.054;8.600;2024-01-30T15:21:04;17.90;50.70
51029;DHT22;37054;52.054;8.600;2024-01-30T15:23:30;17.80;50.70
51029;DHT22;37054;52.054;8.600;2024-01-30T15:25:55;17.80;50.80
51029;DHT22;37054;52.054;8.600;2024-01-30T15:28:38;17.80;50.90
51029;DHT22;37054;52.054;8.600;2024-01-30T15:31:04;17.70;51.00
51029;DHT22;37054;52.054;8.600;2024-01-30T15:33:30;17.70;51.00
51029;DHT22;37054;52.054;8.600;2024-01-30T15:35:57;17.70;51.10
51029;DHT22;37054;52.054;8.600;2024-01-30T15:38:23;17.70;51.10